Time;durP1;ratioP1;P1;durP2;ratioP2;P2;SDS_P1;SDS_P2;PMS_P1;PMS_P2;Temp;Humidity;BMP_temperature;BMP_pressure;BME280_temperature;BME280_humidity;BME280_pressure;Samples;Min_cycle;Max_cycle;Signal;HPM_P1;HPM_P2
2021/07/03 00:00:52;;;;;;;4.73;4.30;;;13.10;99.90;;;;;;5116361;28;20449;-69
2021/07/03 00:03:18;;;;;;;5.90;4.70;;;13.10;99.90;;;;;;5116351;28;20233;-69
2021/07/03 00:05:43;;;;;;;6.50;5.50;;;13.00;99.90;;;;;;5116021;28;20168;-68
2021/07/03 00:08:09;;;;;;;8.10;4.50;;;13.00;99.90;;;;;;5116158;28;20199;-67
2021/07/03 00:10:35;;;;;;;8.43;5.53;;;13.00;99.90;;;;;;5116148;28;20172;-69
2021/07/03 00:13:01;;;;;;;4.40;3.57;;;13.00;99.90;;;;;;5116042;28;20626;-70
2021/07/03 00:15:26;;;;;;;5.80;5.07;;;13.00;99.90;;;;;;5116327;28;20406;-67
2021/07/03 00:17:53;;;;;;;5.17;4.10;;;13.00;99.90;;;;;;5115965;28;20188;-68
2021/07/03 00:20:21;;;;;;;7.60;4.30;;;13.00;99.90;;;;;;5115926;28;20192;-69
2021/07/03 00:22:46;;;;;;;4.63;4.13;;;13.00;99.90;;;;;;5115801;28;20430;-67
2021/07/03 00:25:13;;;;;;;5.27;4.77;;;13.00;99.90;;;;;;5115863;28;20405;-68
2021/07/03 00:27:38;;;;;;;4.43;3.73;;;13.00;99.90;;;;;;5115302;28;20164;-67
2021/07/03 00:30:06;;;;;;;5.97;4.87;;;13.00;99.90;;;;;;5115058;28;20419;-68
2021/07/03 00:32:31;;;;;;;4.73;4.33;;;12.90;99.90;;;;;;5115706;28;20227;-68
2021/07/03 00:34:57;;;;;;;5.37;4.83;;;12.90;99.90;;;;;;5115579;28;20486;-69
2021/07/03 00:37:23;;;;;;;6.70;4.00;;;12.90;99.90;;;;;;5115529;28;20172;-68
2021/07/03 00:39:49;;;;;;;5.60;5.10;;;12.80;99.90;;;;;;5115568;28;20200;-67
2021/07/03 00:42:15;;;;;;;6.50;5.43;;;12.80;99.90;;;;;;5115691;28;20425;-69
2021/07/03 00:44:40;;;;;;;5.67;5.00;;;12.90;99.90;;;;;;5115465;28;20438;-70
2021/07/03 00:47:08;;;;;;;4.87;4.37;;;12.80;99.90;;;;;;5115165;28;20188;-69
2021/07/03 00:49:34;;;;;;;6.40;4.70;;;12.80;99.90;;;;;;5115443;28;20179;-69
2021/07/03 00:52:00;;;;;;;4.70;3.83;;;12.70;99.90;;;;;;5115231;28;20430;-67
2021/07/03 00:54:28;;;;;;;4.47;4.07;;;12.70;99.90;;;;;;5115467;28;20820;-68
2021/07/03 00:57:04;;;;;;;4.83;4.37;;;12.80;99.90;;;;;;5115256;28;20416;-70
2021/07/03 00:59:40;;;;;;;6.97;4.73;;;12.90;99.90;;;;;;5115088;28;20453;-69
2021/07/03 01:02:07;;;;;;;5.60;4.90;;;13.00;99.90;;;;;;5115255;28;20981;-68
2021/07/03 01:04:33;;;;;;;5.90;4.60;;;13.00;99.90;;;;;;5115288;28;20428;-69
2021/07/03 01:06:59;;;;;;;4.77;4.10;;;13.00;99.90;;;;;;5115027;28;20402;-69
2021/07/03 01:09:25;;;;;;;6.03;4.67;;;13.00;99.90;;;;;;5115073;28;20207;-68
2021/07/03 01:11:51;;;;;;;6.00;4.43;;;13.00;99.90;;;;;;5115002;28;20203;-69
2021/07/03 01:14:18;;;;;;;5.10;4.60;;;13.00;99.90;;;;;;5115127;28;20176;-68
2021/07/03 01:16:44;;;;;;;7.33;5.70;;;12.90;99.90;;;;;;5114619;28;20398;-69
2021/07/03 01:19:10;;;;;;;5.77;4.37;;;12.90;99.90;;;;;;5114789;28;20405;-68
2021/07/03 01:21:36;;;;;;;6.67;4.93;;;12.80;99.90;;;;;;5114713;28;20406;-67
2021/07/03 01:24:02;;;;;;;4.83;3.73;;;12.80;99.90;;;;;;5114710;28;20428;-67
2021/07/03 01:26:39;;;;;;;5.28;4.78;;;12.80;99.90;;;;;;5114505;28;20394;-69
2021/07/03 01:29:04;;;;;;;4.40;4.00;;;12.80;99.90;;;;;;5114770;28;20583;-68
2021/07/03 01:31:30;;;;;;;5.77;4.70;;;12.80;99.90;;;;;;5114582;28;20398;-69
2021/07/03 01:33:55;;;;;;;8.10;5.33;;;12.80;99.90;;;;;;5114444;28;20188;-68
2021/07/03 01:36:21;;;;;;;6.00;5.50;;;12.70;99.90;;;;;;5114298;28;20302;-70
2021/07/03 01:38:47;;;;;;;5.43;4.27;;;12.70;99.90;;;;;;5114513;28;20179;-69
2021/07/03 01:41:12;;;;;;;9.57;6.27;;;12.70;99.90;;;;;;5114087;28;20204;-67
2021/07/03 01:43:38;;;;;;;5.00;4.20;;;12.60;99.90;;;;;;5114470;28;20195;-68
2021/07/03 01:46:03;;;;;;;8.13;4.77;;;12.50;99.90;;;;;;5114002;28;20584;-69
2021/07/03 01:48:31;;;;;;;7.70;5.70;;;12.50;99.90;;;;;;5114313;28;20164;-68
2021/07/03 01:50:58;;;;;;;7.40;4.80;;;12.60;99.90;;;;;;5114283;28;20545;-67
2021/07/03 01:53:25;;;;;;;5.67;4.37;;;12.50;99.90;;;;;;5112763;28;20429;-69
2021/07/03 01:55:52;;;;;;;6.30;4.95;;;12.40;99.90;;;;;;5114232;28;20466;-68
2021/07/03 01:58:20;;;;;;;6.13;4.82;;;12.40;99.90;;;;;;5114204;28;20196;-69
2021/07/03 02:00:48;;;;;;;9.20;5.87;;;12.50;99.90;;;;;;5114211;28;20196;-68
2021/07/03 02:03:13;;;;;;;7.72;5.80;;;12.40;99.90;;;;;;5113891;28;20425;-69
2021/07/03 02:05:39;;;;;;;5.90;4.43;;;12.40;99.90;;;;;;5113970;28;20650;-67
2021/07/03 02:08:05;;;;;;;7.67;4.97;;;12.50;99.90;;;;;;5114105;28;20191;-69
2021/07/03 02:10:31;;;;;;;8.90;6.23;;;12.40;99.90;;;;;;5114141;28;20958;-69
2021/07/03 02:12:56;;;;;;;7.50;5.77;;;12.40;99.90;;;;;;5113767;28;20832;-68
2021/07/03 02:15:22;;;;;;;5.30;4.80;;;12.40;99.90;;;;;;5113817;28;20179;-67
2021/07/03 02:17:48;;;;;;;7.67;5.73;;;12.40;99.90;;;;;;5113711;28;20186;-69
2021/07/03 02:20:13;;;;;;;7.70;6.47;;;12.40;99.90;;;;;;5112513;28;20286;-68
2021/07/03 02:22:39;;;;;;;6.33;5.70;;;12.40;99.90;;;;;;5113841;28;20187;-69
2021/07/03 02:25:05;;;;;;;7.20;6.20;;;12.50;99.90;;;;;;5113765;28;20172;-69
2021/07/03 02:27:31;;;;;;;6.50;4.78;;;12.50;99.90;;;;;;5113421;28;20546;-70
2021/07/03 02:29:57;;;;;;;7.53;5.80;;;12.60;99.90;;;;;;5113921;28;20169;-67
2021/07/03 02:32:22;;;;;;;6.63;6.00;;;12.50;99.90;;;;;;5113917;28;20596;-68
2021/07/03 02:34:48;;;;;;;8.50;6.43;;;12.50;99.90;;;;;;5113658;28;20249;-70
2021/07/03 02:37:14;;;;;;;7.93;6.10;;;12.50;99.90;;;;;;5113648;28;20635;-67
2021/07/03 02:39:40;;;;;;;6.10;5.30;;;12.50;99.90;;;;;;5113767;28;20196;-69
2021/07/03 02:42:06;;;;;;;7.37;5.97;;;12.50;99.90;;;;;;5112321;28;20198;-68
2021/07/03 02:44:32;;;;;;;5.90;5.30;;;12.40;99.90;;;;;;5113583;28;20198;-67
2021/07/03 02:46:57;;;;;;;5.30;4.63;;;12.40;99.90;;;;;;5113371;28;20183;-67
2021/07/03 02:49:23;;;;;;;6.80;6.07;;;12.30;99.90;;;;;;5113732;28;20164;-68
2021/07/03 02:51:49;;;;;;;5.80;5.17;;;12.40;99.90;;;;;;5113115;28;20168;-70
2021/07/03 02:54:15;;;;;;;6.50;5.10;;;12.40;99.90;;;;;;5117800;28;20169;-68
2021/07/03 02:56:40;;;;;;;6.87;5.47;;;12.40;99.90;;;;;;5117416;28;20829;-69
2021/07/03 02:59:06;;;;;;;8.03;5.97;;;12.40;99.90;;;;;;5117514;28;20394;-68
2021/07/03 03:01:32;;;;;;;9.00;5.60;;;12.40;99.90;;;;;;5117443;28;20196;-68
2021/07/03 03:03:57;;;;;;;6.70;6.00;;;12.50;99.90;;;;;;5117391;28;20180;-69
2021/07/03 03:06:23;;;;;;;9.70;6.43;;;12.40;99.90;;;;;;5117184;28;20169;-69
2021/07/03 03:08:49;;;;;;;8.77;6.43;;;12.40;99.90;;;;;;5117546;28;20175;-69
2021/07/03 03:11:14;;;;;;;7.33;5.40;;;12.40;99.90;;;;;;5117481;28;20160;-69
2021/07/03 03:13:40;;;;;;;8.20;6.57;;;12.30;99.90;;;;;;5117396;28;20231;-70
2021/07/03 03:16:05;;;;;;;7.40;6.60;;;12.20;99.90;;;;;;5117015;28;20172;-68
2021/07/03 03:18:31;;;;;;;6.43;5.27;;;12.10;99.90;;;;;;5117276;28;20255;-68
2021/07/03 03:20:57;;;;;;;8.27;6.93;;;12.10;99.90;;;;;;5117148;28;20287;-69
2021/07/03 03:23:22;;;;;;;7.13;6.40;;;12.10;99.90;;;;;;5116944;28;20216;-70
2021/07/03 03:25:48;;;;;;;9.90;6.30;;;12.20;99.90;;;;;;5116993;28;20164;-66
2021/07/03 03:28:14;;;;;;;12.13;7.27;;;12.30;99.90;;;;;;5115703;28;20168;-67
2021/07/03 03:30:40;;;;;;;7.97;6.30;;;12.30;99.90;;;;;;5116979;28;20200;-69
2021/07/03 03:33:05;;;;;;;7.10;6.20;;;12.40;99.90;;;;;;5116810;28;20420;-68
2021/07/03 03:35:31;;;;;;;7.40;6.70;;;12.50;99.90;;;;;;5116964;28;20207;-67
2021/07/03 03:37:57;;;;;;;8.97;7.73;;;12.60;99.90;;;;;;5116620;28;20164;-69
2021/07/03 03:40:26;;;;;;;7.67;6.23;;;12.70;99.90;;;;;;5116784;28;20858;-67
2021/07/03 03:42:52;;;;;;;7.80;5.97;;;12.80;99.90;;;;;;5116584;28;20184;-68
2021/07/03 03:45:18;;;;;;;6.57;5.33;;;12.90;99.90;;;;;;5116900;28;20429;-69
2021/07/03 03:47:43;;;;;;;8.90;6.40;;;12.90;99.90;;;;;;5116443;28;20409;-69
2021/07/03 03:50:10;;;;;;;7.10;5.87;;;13.00;99.90;;;;;;5116693;28;20168;-69
2021/07/03 03:52:35;;;;;;;6.80;5.97;;;13.10;99.90;;;;;;5116596;28;20188;-67
2021/07/03 03:55:02;;;;;;;9.67;7.20;;;13.10;99.90;;;;;;5116615;28;20179;-67
2021/07/03 03:57:31;;;;;;;7.07;5.73;;;13.20;99.90;;;;;;5116308;28;20272;-69
2021/07/03 03:59:58;;;;;;;5.87;5.13;;;13.30;99.90;;;;;;5116374;28;20434;-70
2021/07/03 04:02:24;;;;;;;7.63;5.63;;;13.30;99.90;;;;;;5116123;28;20417;-68
2021/07/03 04:04:51;;;;;;;12.67;6.70;;;13.30;99.90;;;;;;5116345;28;20402;-70
2021/07/03 04:07:18;;;;;;;6.90;5.13;;;13.30;99.90;;;;;;5115994;27;20824;-68
2021/07/03 04:09:44;;;;;;;8.33;6.70;;;13.40;99.90;;;;;;5116603;28;20411;-68
2021/07/03 04:12:10;;;;;;;7.17;5.27;;;13.40;99.90;;;;;;5114817;28;20429;-69
2021/07/03 04:14:35;;;;;;;8.03;6.10;;;13.50;99.90;;;;;;5116100;28;20539;-70
2021/07/03 04:17:02;;;;;;;6.13;5.53;;;13.60;99.90;;;;;;5115984;28;20183;-68
2021/07/03 04:19:28;;;;;;;6.77;5.23;;;13.60;99.90;;;;;;5116045;28;20170;-66
2021/07/03 04:21:54;;;;;;;6.30;4.63;;;13.70;99.90;;;;;;5116025;28;20396;-70
2021/07/03 04:24:19;;;;;;;8.13;6.27;;;13.80;99.90;;;;;;5115895;28;20402;-67
2021/07/03 04:26:45;;;;;;;5.20;4.80;;;13.80;99.90;;;;;;5115726;28;20167;-70
2021/07/03 04:29:11;;;;;;;6.30;5.17;;;13.80;99.90;;;;;;5115922;28;20177;-68
2021/07/03 04:31:36;;;;;;;6.00;5.40;;;13.90;99.90;;;;;;5115870;28;20179;-66
2021/07/03 04:34:02;;;;;;;6.47;5.77;;;13.90;99.90;;;;;;5115807;28;20259;-67
2021/07/03 04:36:28;;;;;;;7.93;4.70;;;14.00;99.90;;;;;;5115576;28;20264;-70
2021/07/03 04:38:53;;;;;;;7.13;5.30;;;14.20;99.90;;;;;;5115627;28;20192;-69
2021/07/03 04:41:19;;;;;;;5.47;4.90;;;14.30;99.90;;;;;;5115505;28;20453;-67
2021/07/03 04:43:45;;;;;;;5.73;5.03;;;14.50;99.90;;;;;;5115475;28;20708;-68
2021/07/03 04:46:10;;;;;;;7.00;6.23;;;14.80;99.90;;;;;;5115228;28;20188;-69
2021/07/03 04:48:36;;;;;;;5.47;4.97;;;15.10;99.90;;;;;;5115338;28;20205;-69
2021/07/03 04:51:02;;;;;;;7.53;4.63;;;15.40;99.90;;;;;;5114265;28;20184;-69
2021/07/03 04:53:27;;;;;;;4.70;4.30;;;15.70;99.90;;;;;;5115289;28;20232;-68
2021/07/03 04:55:53;;;;;;;5.30;4.80;;;16.00;99.90;;;;;;5115107;28;20304;-69
2021/07/03 04:58:18;;;;;;;6.53;5.00;;;16.20;99.90;;;;;;5115362;28;20636;-70
2021/07/03 05:00:44;;;;;;;5.40;4.90;;;16.30;99.30;;;;;;5115361;28;20739;-67
2021/07/03 05:03:10;;;;;;;5.20;4.30;;;16.40;99.10;;;;;;5115049;28;20555;-69
2021/07/03 05:05:35;;;;;;;4.37;4.00;;;16.40;98.40;;;;;;5115160;28;20241;-66
2021/07/03 05:08:01;;;;;;;6.70;4.67;;;16.40;98.50;;;;;;5113805;28;20706;-68
2021/07/03 05:10:27;;;;;;;4.57;4.13;;;16.40;98.80;;;;;;5115049;28;20216;-68
2021/07/03 05:12:54;;;;;;;5.60;4.70;;;16.30;98.90;;;;;;5115008;28;20196;-69
2021/07/03 05:15:20;;;;;;;5.57;5.07;;;16.40;99.50;;;;;;5114172;28;20175;-67
2021/07/03 05:17:46;;;;;;;5.63;4.97;;;16.30;98.90;;;;;;5114737;28;20409;-70
2021/07/03 05:20:12;;;;;;;5.23;4.73;;;16.40;99.40;;;;;;5114918;28;20550;-70
2021/07/03 05:22:37;;;;;;;6.10;5.47;;;16.50;99.40;;;;;;5114732;28;20566;-67
2021/07/03 05:25:03;;;;;;;5.10;4.60;;;16.40;99.20;;;;;;5114729;28;20394;-68
2021/07/03 05:27:29;;;;;;;6.10;4.10;;;16.50;99.20;;;;;;5114631;28;20171;-68
2021/07/03 05:29:55;;;;;;;5.00;4.60;;;16.70;99.60;;;;;;5114821;28;20409;-70
2021/07/03 05:32:20;;;;;;;6.83;5.27;;;16.70;98.60;;;;;;5114565;28;20193;-69
2021/07/03 05:34:46;;;;;;;5.53;4.90;;;16.80;98.80;;;;;;5114630;28;20550;-67
2021/07/03 05:37:11;;;;;;;4.87;4.37;;;17.10;99.10;;;;;;5113027;28;20180;-69
2021/07/03 05:39:37;;;;;;;5.73;4.10;;;17.30;98.70;;;;;;5114254;28;20175;-70
2021/07/03 05:42:03;;;;;;;5.37;4.87;;;17.60;98.50;;;;;;5114301;28;20210;-66
2021/07/03 05:44:29;;;;;;;5.23;4.70;;;17.80;98.10;;;;;;5114349;28;20171;-69
2021/07/03 05:46:54;;;;;;;4.53;3.87;;;18.10;97.70;;;;;;5114064;28;20229;-68
2021/07/03 05:49:20;;;;;;;4.30;3.90;;;18.40;97.60;;;;;;5114506;28;20243;-70
2021/07/03 05:51:46;;;;;;;4.27;3.87;;;18.70;97.20;;;;;;5114328;28;20193;-68
2021/07/03 05:54:13;;;;;;;5.23;3.93;;;19.20;96.10;;;;;;5114234;28;20628;-69
2021/07/03 05:56:38;;;;;;;4.77;4.27;;;19.50;94.90;;;;;;5114196;28;20478;-66
2021/07/03 05:59:04;;;;;;;5.60;4.67;;;20.20;94.40;;;;;;5114192;28;20394;-69
2021/07/03 06:01:30;;;;;;;5.97;4.73;;;20.70;92.70;;;;;;5114118;28;20205;-67
2021/07/03 06:03:56;;;;;;;5.50;3.70;;;21.20;92.60;;;;;;5113957;27;20253;-70
2021/07/03 06:06:21;;;;;;;3.60;3.30;;;21.80;93.10;;;;;;5113724;28;20411;-68
2021/07/03 06:08:47;;;;;;;4.77;4.33;;;22.30;90.60;;;;;;5113970;28;20177;-69
2021/07/03 06:11:14;;;;;;;3.73;3.37;;;23.00;89.70;;;;;;5113996;28;20180;-68
2021/07/03 06:13:41;;;;;;;5.13;4.73;;;23.80;84.80;;;;;;5113872;28;20275;-68
2021/07/03 06:16:06;;;;;;;4.57;4.17;;;24.10;82.20;;;;;;5113873;28;20406;-69
2021/07/03 06:18:32;;;;;;;4.47;4.00;;;25.00;82.70;;;;;;5113796;28;20384;-69
2021/07/03 06:20:58;;;;;;;5.70;3.90;;;25.90;77.60;;;;;;5113756;28;20690;-67
2021/07/03 06:23:25;;;;;;;6.80;4.30;;;26.40;74.00;;;;;;5113752;28;20188;-67
2021/07/03 06:25:51;;;;;;;4.43;4.03;;;26.10;72.70;;;;;;5113626;28;20818;-69
2021/07/03 06:28:17;;;;;;;4.50;4.10;;;25.60;72.20;;;;;;5113687;28;20402;-70
2021/07/03 06:30:42;;;;;;;3.77;3.00;;;25.20;71.50;;;;;;5113858;28;20416;-69
2021/07/03 06:33:08;;;;;;;3.73;3.43;;;26.00;74.90;;;;;;5113661;28;20199;-69
2021/07/03 06:35:34;;;;;;;4.17;3.77;;;27.40;71.60;;;;;;5114148;28;20176;-68
2021/07/03 06:37:59;;;;;;;3.73;3.43;;;28.80;66.40;;;;;;5113555;28;20225;-70
2021/07/03 06:40:25;;;;;;;3.90;3.57;;;30.10;59.10;;;;;;5113623;28;20237;-71
2021/07/03 06:42:51;;;;;;;3.90;3.60;;;30.70;56.50;;;;;;5113781;28;20192;-69
2021/07/03 06:45:17;;;;;;;3.73;3.43;;;31.80;52.20;;;;;;5113548;28;20187;-71
2021/07/03 06:47:43;;;;;;;3.50;3.20;;;33.10;48.60;;;;;;5113596;28;20172;-70
2021/07/03 06:50:09;;;;;;;3.97;3.67;;;34.30;45.10;;;;;;5113671;28;20850;-71
2021/07/03 06:52:35;;;;;;;3.10;2.90;;;34.70;39.30;;;;;;5113856;28;20666;-68
2021/07/03 06:55:01;;;;;;;3.70;3.40;;;34.20;39.00;;;;;;5113720;28;20394;-70
2021/07/03 06:57:27;;;;;;;4.47;4.07;;;33.20;40.40;;;;;;5113409;28;20451;-67
2021/07/03 06:59:52;;;;;;;3.80;3.50;;;32.20;42.80;;;;;;5113510;28;20196;-69
2021/07/03 07:02:19;;;;;;;4.30;3.57;;;32.30;44.10;;;;;;5113536;28;20616;-70
2021/07/03 07:04:45;;;;;;;4.43;4.07;;;33.00;42.50;;;;;;5113434;28;20245;-68
2021/07/03 07:07:11;;;;;;;4.03;3.70;;;33.70;43.20;;;;;;5113209;28;20772;-68
2021/07/03 07:09:36;;;;;;;3.60;3.00;;;34.00;37.90;;;;;;5113424;28;20398;-71
2021/07/03 07:12:02;;;;;;;3.30;3.00;;;33.70;37.50;;;;;;5113380;28;20180;-71
2021/07/03 07:14:28;;;;;;;4.10;3.80;;;33.40;39.10;;;;;;5112014;28;20526;-71
2021/07/03 07:16:54;;;;;;;4.40;3.43;;;33.50;41.00;;;;;;5113119;28;20442;-69
2021/07/03 07:19:20;;;;;;;3.20;3.00;;;33.60;40.60;;;;;;5113331;28;20619;-71
2021/07/03 07:21:45;;;;;;;3.50;3.20;;;34.10;38.80;;;;;;5113098;28;20250;-70
2021/07/03 07:24:11;;;;;;;3.60;3.30;;;34.30;39.30;;;;;;5113227;28;20429;-71
2021/07/03 07:26:38;;;;;;;3.40;3.20;;;34.20;39.00;;;;;;5113066;28;20168;-70
2021/07/03 07:29:04;;;;;;;3.37;3.17;;;34.70;39.60;;;;;;5113273;28;20458;-68
2021/07/03 07:31:30;;;;;;;4.40;4.00;;;35.20;38.90;;;;;;5113376;28;20477;-68
2021/07/03 07:33:56;;;;;;;3.83;3.47;;;35.50;35.10;;;;;;5112996;28;20426;-69
2021/07/03 07:36:21;;;;;;;3.70;3.40;;;35.70;35.60;;;;;;5112941;28;20199;-69
2021/07/03 07:38:47;;;;;;;3.70;3.40;;;35.90;34.60;;;;;;5115414;28;20172;-70
2021/07/03 07:41:15;;;;;;;3.27;2.93;;;35.80;35.10;;;;;;5116613;28;20558;-70
2021/07/03 07:43:41;;;;;;;3.60;3.30;;;35.30;33.80;;;;;;5116653;28;20271;-70
2021/07/03 07:46:06;;;;;;;3.70;3.40;;;34.80;34.30;;;;;;5115145;28;20833;-70
2021/07/03 07:48:33;;;;;;;4.07;3.70;;;34.30;34.20;;;;;;5116670;28;20631;-70
2021/07/03 07:51:02;;;;;;;3.10;2.73;;;34.20;35.20;;;;;;5116732;28;20177;-70
2021/07/03 07:53:28;;;;;;;3.67;3.37;;;34.30;35.30;;;;;;5116577;28;20429;-68
2021/07/03 07:55:55;;;;;;;3.40;3.10;;;34.30;36.60;;;;;;5116741;28;20757;-70
2021/07/03 07:58:21;;;;;;;7.80;3.57;;;34.90;39.30;;;;;;5116504;28;20402;-72
2021/07/03 08:00:47;;;;;;;3.27;3.07;;;35.60;34.30;;;;;;5116636;28;20522;-70
2021/07/03 08:03:13;;;;;;;3.60;3.30;;;36.20;32.70;;;;;;5116355;28;20521;-68
2021/07/03 08:05:38;;;;;;;3.50;3.27;;;36.50;35.20;;;;;;5116657;28;20247;-69
2021/07/03 08:08:06;;;;;;;3.40;3.10;;;37.10;31.50;;;;;;5116404;28;20259;-68
2021/07/03 08:10:36;;;;;;;7.23;3.10;;;37.60;33.10;;;;;;5116650;28;20301;-69
2021/07/03 08:13:02;;;;;;;3.67;3.37;;;38.20;32.40;;;;;;5116145;27;20430;-71
2021/07/03 08:15:28;;;;;;;3.53;3.23;;;37.60;31.30;;;;;;5116168;28;20461;-68
2021/07/03 08:17:53;;;;;;;3.53;3.23;;;37.50;33.50;;;;;;5115994;28;20911;-70
2021/07/03 08:20:21;;;;;;;4.90;3.43;;;37.80;32.50;;;;;;5116060;28;20204;-70
2021/07/03 08:22:49;;;;;;;3.57;3.27;;;37.80;33.30;;;;;;5116074;28;20203;-70
2021/07/03 08:25:17;;;;;;;3.50;3.20;;;37.60;34.00;;;;;;5116118;28;20406;-70
2021/07/03 08:27:43;;;;;;;3.57;3.27;;;37.80;34.50;;;;;;5115904;28;20425;-69
2021/07/03 08:30:10;;;;;;;2.90;2.70;;;37.50;33.80;;;;;;5116117;28;20410;-70
2021/07/03 08:32:35;;;;;;;3.50;3.20;;;37.60;32.80;;;;;;5115768;28;20521;-69
2021/07/03 08:35:01;;;;;;;3.50;3.20;;;37.40;32.20;;;;;;5116102;28;20532;-68
2021/07/03 08:37:27;;;;;;;3.50;3.20;;;37.20;32.80;;;;;;5115612;28;20172;-70
2021/07/03 08:39:53;;;;;;;3.80;3.50;;;37.20;31.00;;;;;;5115878;28;20449;-70
2021/07/03 08:42:18;;;;;;;3.57;3.27;;;37.10;31.60;;;;;;5115532;28;20723;-70
2021/07/03 08:44:49;;;;;;;3.83;3.53;;;36.80;32.70;;;;;;5115963;28;20175;-69
2021/07/03 08:47:16;;;;;;;3.67;3.37;;;36.30;32.70;;;;;;5115620;28;20548;-69
2021/07/03 08:49:49;;;;;;;3.43;3.13;;;34.70;33.30;;;;;;5114460;28;20398;-70
2021/07/03 08:52:14;;;;;;;4.03;3.53;;;34.80;35.80;;;;;;5115552;28;20830;-70
2021/07/03 08:54:40;;;;;;;4.00;3.20;;;35.60;36.20;;;;;;5115591;28;20390;-71
2021/07/03 08:57:05;;;;;;;5.00;3.27;;;36.30;34.00;;;;;;5115452;28;20168;-71
2021/07/03 08:59:31;;;;;;;3.17;2.90;;;36.90;31.50;;;;;;5115213;28;20174;-71
2021/07/03 09:01:59;;;;;;;3.67;3.37;;;37.00;32.70;;;;;;5115240;28;20179;-69
2021/07/03 09:04:36;;;;;;;3.40;3.10;;;37.00;30.80;;;;;;5115167;28;20168;-69
2021/07/03 09:07:18;;;;;;;3.37;3.07;;;37.00;31.60;;;;;;5114968;28;20438;-70
2021/07/03 09:09:51;;;;;;;3.10;2.90;;;36.90;30.60;;;;;;5115604;27;20402;-70
2021/07/03 09:12:31;;;;;;;3.60;3.30;;;37.50;32.70;;;;;;5115036;28;20426;-68
2021/07/03 09:15:07;;;;;;;3.53;3.30;;;38.20;33.30;;;;;;5115043;28;20439;-70
2021/07/03 09:17:32;;;;;;;3.83;3.53;;;38.10;29.90;;;;;;5114816;28;20762;-70
2021/07/03 09:19:58;;;;;;;4.17;3.77;;;37.70;30.30;;;;;;5114938;28;20457;-70
2021/07/03 09:22:33;;;;;;;3.83;3.50;;;37.40;30.30;;;;;;5114769;27;20196;-71
2021/07/03 09:24:58;;;;;;;4.03;3.73;;;37.60;32.60;;;;;;5114990;28;20168;-67
2021/07/03 09:27:24;;;;;;;4.07;3.77;;;37.50;30.40;;;;;;5114578;28;20409;-71
2021/07/03 09:29:51;;;;;;;3.37;3.07;;;37.30;30.00;;;;;;5114840;28;20651;-69
2021/07/03 09:32:17;;;;;;;3.83;3.53;;;35.80;32.00;;;;;;5114814;28;20199;-71
2021/07/03 09:34:43;;;;;;;3.83;3.53;;;36.00;33.00;;;;;;5114531;28;20423;-70
2021/07/03 09:37:12;;;;;;;4.30;3.70;;;36.20;31.00;;;;;;5114595;28;20534;-71
2021/07/03 09:39:38;;;;;;;4.03;3.63;;;36.20;32.00;;;;;;5114549;28;20160;-69
2021/07/03 09:42:12;;;;;;;3.67;3.37;;;35.90;31.80;;;;;;5114477;28;20418;-69
2021/07/03 09:44:38;;;;;;;3.83;3.53;;;35.50;31.00;;;;;;5114947;28;20152;-69
2021/07/03 09:47:04;;;;;;;4.03;3.73;;;34.90;32.10;;;;;;5113989;28;20773;-69
2021/07/03 09:49:29;;;;;;;3.97;3.67;;;34.50;32.90;;;;;;5114647;28;20620;-69
2021/07/03 09:52:00;;;;;;;2.73;2.50;;;33.10;33.40;;;;;;5114323;28;20164;-66
2021/07/03 09:54:31;;;;;;;2.90;2.70;;;32.00;34.00;;;;;;5114258;28;20164;-69
2021/07/03 09:57:00;;;;;;;3.80;3.47;;;31.70;34.40;;;;;;5114246;28;20410;-71
2021/07/03 09:59:33;;;;;;;3.03;2.83;;;32.10;34.60;;;;;;5114315;28;20414;-69
2021/07/03 10:01:59;;;;;;;3.43;3.07;;;32.60;34.30;;;;;;5113847;28;20457;-70
2021/07/03 10:04:25;;;;;;;4.63;3.10;;;33.00;34.60;;;;;;5114181;28;20767;-70
2021/07/03 10:06:56;;;;;;;3.20;3.00;;;33.10;34.80;;;;;;5114066;28;20406;-69
2021/07/03 10:09:45;;;;;;;4.73;3.40;;;33.00;34.40;;;;;;5114278;28;20413;-69
2021/07/03 10:12:17;;;;;;;2.73;2.53;;;32.80;35.10;;;;;;5114112;28;20643;-70
2021/07/03 10:14:46;;;;;;;3.27;2.97;;;32.60;33.60;;;;;;5114259;28;20450;-69
2021/07/03 10:17:20;;;;;;;3.70;3.40;;;32.20;35.20;;;;;;5114053;28;20402;-68
2021/07/03 10:19:48;;;;;;;2.73;2.50;;;31.60;36.10;;;;;;5114112;28;20425;-69
2021/07/03 10:22:17;;;;;;;3.10;2.87;;;31.10;36.80;;;;;;5113866;28;20430;-71
2021/07/03 10:25:09;;;;;;;3.73;3.40;;;30.70;36.60;;;;;;5114109;28;20398;-68
2021/07/03 10:27:34;;;;;;;3.90;3.30;;;30.40;37.50;;;;;;5110572;28;20413;-70
2021/07/03 10:30:06;;;;;;;3.10;2.80;;;30.40;37.00;;;;;;5113863;28;20461;-69
2021/07/03 10:32:33;;;;;;;4.87;3.30;;;29.80;35.90;;;;;;5113922;28;20195;-70
2021/07/03 10:35:21;;;;;;;3.40;3.10;;;30.00;37.70;;;;;;5113751;28;20402;-69
2021/07/03 10:37:47;;;;;;;3.53;3.23;;;30.10;37.30;;;;;;5113694;28;20479;-69
2021/07/03 10:40:20;;;;;;;3.50;3.30;;;30.20;36.80;;;;;;5113818;28;20768;-70
2021/07/03 10:42:47;;;;;;;6.17;3.80;;;30.00;38.40;;;;;;5113741;28;20253;-69
2021/07/03 10:45:15;;;;;;;3.90;3.47;;;30.30;39.30;;;;;;5113731;28;20422;-68
2021/07/03 10:47:42;;;;;;;4.47;4.07;;;30.40;38.80;;;;;;5113470;28;20813;-68
2021/07/03 10:50:26;;;;;;;5.00;4.60;;;30.60;38.00;;;;;;5113823;28;20441;-68
2021/07/03 10:52:54;;;;;;;7.27;5.07;;;31.40;38.50;;;;;;5113831;28;20471;-70
2021/07/03 10:55:25;;;;;;;5.43;4.80;;;31.40;38.80;;;;;;5113838;28;20402;-70
2021/07/03 10:57:51;;;;;;;5.10;4.40;;;31.40;40.00;;;;;;5113490;28;20410;-71
2021/07/03 11:00:24;;;;;;;5.93;5.33;;;31.30;42.70;;;;;;5113745;28;20459;-71
2021/07/03 11:02:51;;;;;;;5.00;4.03;;;31.10;39.30;;;;;;5112160;28;20219;-68
2021/07/03 11:05:17;;;;;;;4.73;4.33;;;31.00;38.50;;;;;;5113468;28;20394;-71
2021/07/03 11:07:45;;;;;;;4.67;4.27;;;31.10;41.50;;;;;;5113405;28;20406;-70
2021/07/03 11:10:24;;;;;;;6.10;5.07;;;30.90;39.70;;;;;;5113544;28;20654;-70
2021/07/03 11:12:55;;;;;;;4.83;4.47;;;30.50;41.00;;;;;;5114517;28;20441;-68
2021/07/03 11:15:27;;;;;;;5.20;4.07;;;30.10;41.50;;;;;;5117351;28;20447;-67
2021/07/03 11:18:00;;;;;;;5.10;4.63;;;29.70;44.60;;;;;;5117255;28;20773;-70
2021/07/03 11:20:26;;;;;;;4.70;4.30;;;29.50;42.90;;;;;;5117391;28;20410;-70
2021/07/03 11:22:54;;;;;;;4.87;3.77;;;29.00;43.00;;;;;;5117301;28;20426;-68
2021/07/03 11:25:31;;;;;;;4.57;4.17;;;28.40;43.40;;;;;;5117384;28;20413;-67
2021/07/03 11:28:05;;;;;;;5.07;4.00;;;28.40;49.20;;;;;;5117056;27;20402;-67
2021/07/03 11:30:32;;;;;;;4.23;3.83;;;28.80;44.80;;;;;;5117067;28;20813;-67
2021/07/03 11:32:58;;;;;;;4.50;3.83;;;28.80;43.80;;;;;;5117010;28;20501;-70
2021/07/03 11:35:25;;;;;;;6.00;5.00;;;28.90;45.80;;;;;;5116906;28;20434;-68
2021/07/03 11:37:51;;;;;;;3.67;3.37;;;28.40;43.80;;;;;;5115506;28;20917;-70
2021/07/03 11:40:19;;;;;;;3.83;3.53;;;28.00;44.80;;;;;;5116888;28;20409;-67
2021/07/03 11:42:48;;;;;;;3.40;3.10;;;28.00;46.10;;;;;;5116840;28;20192;-70
2021/07/03 11:45:17;;;;;;;3.93;3.63;;;27.90;44.70;;;;;;5116710;28;20799;-69
2021/07/03 11:47:47;;;;;;;3.90;3.60;;;27.80;45.10;;;;;;5116538;27;20410;-69
2021/07/03 11:50:13;;;;;;;4.20;3.90;;;27.80;44.40;;;;;;5116636;28;20530;-68
2021/07/03 11:52:47;;;;;;;3.60;3.10;;;27.90;45.90;;;;;;5116597;28;20932;-68
2021/07/03 11:55:14;;;;;;;3.50;3.27;;;28.20;48.70;;;;;;5117005;28;20164;-68
2021/07/03 11:57:43;;;;;;;5.30;3.70;;;28.30;45.60;;;;;;5116513;28;20809;-68
2021/07/03 12:00:31;;;;;;;4.00;3.70;;;28.20;47.20;;;;;;5116789;28;20412;-69
2021/07/03 12:02:57;;;;;;;3.37;3.07;;;28.30;45.40;;;;;;5116054;28;20438;-69
2021/07/03 12:05:33;;;;;;;3.80;3.40;;;28.40;45.40;;;;;;5116608;28;20434;-70
2021/07/03 12:08:13;;;;;;;3.30;3.00;;;28.50;48.60;;;;;;5116354;28;20380;-70
2021/07/03 12:10:45;;;;;;;4.10;3.80;;;28.70;44.90;;;;;;5116431;28;20437;-68
2021/07/03 12:13:21;;;;;;;3.10;2.80;;;28.50;45.70;;;;;;5116374;28;20430;-70
2021/07/03 12:16:10;;;;;;;3.70;3.10;;;28.40;46.80;;;;;;5114698;28;20463;-67
2021/07/03 12:18:36;;;;;;;4.33;3.93;;;28.20;46.50;;;;;;5116486;28;20398;-67
2021/07/03 12:21:03;;;;;;;3.90;3.60;;;28.20;48.90;;;;;;5116228;28;20481;-69
2021/07/03 12:23:29;;;;;;;3.60;3.30;;;28.10;48.30;;;;;;5115753;28;20192;-67
2021/07/03 12:25:55;;;;;;;3.43;3.13;;;28.10;50.00;;;;;;5116001;28;20398;-69
2021/07/03 12:28:20;;;;;;;4.40;4.00;;;28.20;50.80;;;;;;5116003;28;20176;-68
2021/07/03 12:30:47;;;;;;;5.60;5.10;;;28.20;48.40;;;;;;5115891;28;20192;-67
2021/07/03 12:33:13;;;;;;;4.30;3.50;;;28.40;48.10;;;;;;5115874;28;20241;-69
2021/07/03 12:35:40;;;;;;;4.53;4.13;;;28.60;48.20;;;;;;5115740;28;20485;-68
2021/07/03 12:38:07;;;;;;;4.70;4.30;;;28.70;46.20;;;;;;5115713;28;20398;-68
2021/07/03 12:40:36;;;;;;;4.40;4.00;;;29.00;47.80;;;;;;5115873;28;20730;-70
2021/07/03 12:43:02;;;;;;;3.60;3.33;;;29.20;45.30;;;;;;5115597;28;20428;-69
2021/07/03 12:45:28;;;;;;;2.87;2.67;;;29.30;44.70;;;;;;5115503;28;20429;-67
2021/07/03 12:48:14;;;;;;;3.53;3.23;;;29.50;44.80;;;;;;5115598;28;20410;-68